Time;durP1;ratioP1;P1;durP2;ratioP2;P2;SDS_P1;SDS_P2;PMS_P1;PMS_P2;Temp;Humidity;BMP_temperature;BMP_pressure;BME280_temperature;BME280_humidity;BME280_pressure;Samples;Min_cycle;Max_cycle;Signal;HPM_P1;HPM_P2
2022/07/13 00:00:32;;;;;;;3.08;1.55;;;20.90;93.40;;;20.29;100.00;101163.19;4989781;28;20061;-76
2022/07/13 00:03:00;;;;;;;5.57;1.83;;;20.20;93.20;;;20.19;100.00;101172.63;4990432;28;20137;-78
2022/07/13 00:05:27;;;;;;;3.72;1.98;;;20.20;93.50;;;20.14;100.00;101169.34;4973887;28;20046;-77
2022/07/13 00:07:54;;;;;;;2.70;1.50;;;20.20;93.40;;;20.22;100.00;101173.34;4989674;28;20056;-78
2022/07/13 00:10:21;;;;;;;1.88;1.75;;;20.10;93.50;;;20.24;100.00;101173.28;4991136;28;20042;-78
2022/07/13 00:12:48;;;;;;;2.67;1.73;;;20.10;93.50;;;20.20;100.00;101171.69;4989552;28;20053;-77
2022/07/13 00:15:15;;;;;;;4.15;1.60;;;20.10;93.50;;;20.23;100.00;101168.88;4989728;28;20133;-78
2022/07/13 00:17:42;;;;;;;2.78;1.90;;;20.10;93.60;;;20.31;100.00;101166.66;4979336;28;20678;-78
2022/07/13 00:20:09;;;;;;;3.28;1.42;;;20.20;93.40;;;20.23;100.00;101160.84;4990517;28;20052;-78
2022/07/13 00:22:37;;;;;;;2.08;1.80;;;20.20;93.50;;;20.27;100.00;101151.72;4990573;28;20050;-77
2022/07/13 00:25:04;;;;;;;5.18;2.25;;;20.20;93.40;;;20.29;100.00;101149.84;4973461;28;20042;-77
2022/07/13 00:27:31;;;;;;;2.53;1.60;;;20.20;93.40;;;20.30;100.00;101158.72;4989172;28;20050;-78
2022/07/13 00:29:58;;;;;;;3.05;2.28;;;20.20;93.70;;;20.22;100.00;101156.47;4972538;28;20038;-78
2022/07/13 00:32:26;;;;;;;2.63;2.05;;;20.20;93.70;;;20.16;100.00;101160.31;4987996;28;20038;-79
2022/07/13 00:34:52;;;;;;;3.75;1.70;;;20.20;94.00;;;20.19;100.00;101152.13;4972704;28;20073;-78
2022/07/13 00:37:19;;;;;;;2.85;1.65;;;20.10;94.00;;;20.31;100.00;101150.63;4990231;28;20046;-78
2022/07/13 00:39:46;;;;;;;2.28;1.73;;;20.20;94.00;;;20.25;100.00;101146.44;4988519;28;20054;-78
2022/07/13 00:42:13;;;;;;;1.83;1.58;;;20.20;94.10;;;20.26;100.00;101147.31;4972549;28;20057;-77
2022/07/13 00:44:40;;;;;;;5.00;2.20;;;20.20;94.00;;;20.44;100.00;101140.13;4988563;28;20052;-79
2022/07/13 00:47:07;;;;;;;4.80;1.85;;;20.20;93.90;;;20.43;100.00;101149.09;4972408;28;20125;-77
2022/07/13 00:49:35;;;;;;;3.78;1.83;;;20.30;94.10;;;20.49;100.00;101153.25;4988553;28;20117;-78
2022/07/13 00:52:02;;;;;;;2.22;1.45;;;20.30;94.00;;;20.40;100.00;101144.78;4988518;28;20050;-78
2022/07/13 00:54:30;;;;;;;1.95;1.75;;;20.30;94.20;;;20.58;100.00;101146.53;4986593;28;20046;-78
2022/07/13 00:57:00;;;;;;;2.38;1.88;;;20.30;94.20;;;20.49;100.00;101142.56;4970450;28;20046;-77
2022/07/13 00:59:27;;;;;;;2.53;1.65;;;20.40;94.30;;;20.52;100.00;101142.38;4985620;28;20050;-78
2022/07/13 01:01:54;;;;;;;2.13;1.55;;;20.40;94.10;;;20.43;100.00;101138.41;4985761;28;20073;-77
2022/07/13 01:04:25;;;;;;;2.78;1.55;;;20.40;94.30;;;20.48;100.00;101143.50;4969926;28;20050;-78
2022/07/13 01:06:54;;;;;;;3.03;1.33;;;20.30;94.20;;;20.32;100.00;101148.81;4970239;28;20050;-77
2022/07/13 01:09:22;;;;;;;1.75;1.50;;;20.40;94.40;;;20.11;100.00;101148.97;4969404;28;20046;-77
2022/07/13 01:11:52;;;;;;;2.80;1.77;;;20.20;94.40;;;20.13;100.00;101149.75;4985769;28;20058;-78
2022/07/13 01:14:19;;;;;;;2.17;1.42;;;20.20;94.30;;;20.14;100.00;101145.28;4987173;28;20049;-78
2022/07/13 01:16:47;;;;;;;5.90;1.50;;;20.10;94.50;;;19.97;100.00;101157.72;4966686;28;20415;-77
2022/07/13 01:19:15;;;;;;;6.50;1.75;;;20.00;94.70;;;19.73;100.00;101157.13;4965975;28;20055;-77
2022/07/13 01:21:46;;;;;;;1.67;1.52;;;19.90;94.70;;;19.79;100.00;101152.34;4911844;28;1117576;-77
2022/07/13 01:24:13;;;;;;;3.15;1.52;;;19.90;94.80;;;19.75;100.00;101147.22;4968592;28;20046;-77
2022/07/13 01:26:40;;;;;;;2.47;1.52;;;20.20;95.10;;;19.75;100.00;101142.75;4967307;28;20102;-77
2022/07/13 01:29:08;;;;;;;2.05;1.60;;;19.70;95.10;;;19.83;100.00;101131.69;4950736;28;20039;-77
2022/07/13 01:31:38;;;;;;;2.70;1.80;;;19.70;95.00;;;19.84;100.00;101125.41;4967154;28;20046;-77
2022/07/13 01:34:08;;;;;;;2.50;1.75;;;19.70;95.20;;;19.78;100.00;101136.38;4951590;28;20057;-77
2022/07/13 01:36:36;;;;;;;2.90;1.60;;;19.80;95.30;;;19.83;100.00;101132.53;4967490;28;20035;-77
2022/07/13 01:39:05;;;;;;;1.50;1.33;;;19.80;95.10;;;19.79;100.00;101133.66;4966762;28;20055;-77
2022/07/13 01:41:33;;;;;;;3.13;1.60;;;19.80;95.10;;;19.81;100.00;101130.88;4967411;28;20047;-77
2022/07/13 01:44:01;;;;;;;2.40;1.60;;;19.70;95.00;;;19.88;100.00;101129.66;4953306;28;20137;-77
2022/07/13 01:46:29;;;;;;;2.53;1.80;;;19.80;95.00;;;19.90;100.00;101121.53;4959180;28;20039;-77
2022/07/13 01:48:57;;;;;;;2.37;1.73;;;19.80;94.90;;;19.95;100.00;101120.38;4986008;28;20145;-77
2022/07/13 01:51:24;;;;;;;2.65;1.45;;;19.80;94.70;;;19.89;100.00;101102.00;4986423;28;20130;-77
2022/07/13 01:53:52;;;;;;;2.05;1.73;;;19.80;94.80;;;19.95;100.00;101112.38;4986246;28;20046;-77
2022/07/13 01:56:20;;;;;;;2.08;1.50;;;19.80;94.50;;;19.89;100.00;101112.69;4986941;28;20043;-77
2022/07/13 01:58:48;;;;;;;3.13;1.45;;;19.80;94.70;;;19.96;100.00;101118.59;4969913;28;20070;-78
2022/07/13 02:01:15;;;;;;;3.28;1.48;;;20.40;94.70;;;19.94;100.00;101117.81;4972139;28;20035;-78
2022/07/13 02:03:44;;;;;;;2.78;1.60;;;19.80;94.60;;;19.85;100.00;101119.13;4970103;28;20535;-77
2022/07/13 02:06:12;;;;;;;1.58;1.42;;;19.80;94.70;;;19.77;100.00;101123.97;4971648;28;20498;-76
2022/07/13 02:08:39;;;;;;;4.78;1.75;;;19.70;94.90;;;19.63;100.00;101108.66;4974533;28;20043;-77
2022/07/13 02:11:14;;;;;;;1.70;1.33;;;19.70;94.90;;;19.66;100.00;101108.50;4957684;28;20135;-79
2022/07/13 02:13:43;;;;;;;1.95;1.55;;;20.60;95.20;;;19.68;100.00;101110.16;4971938;28;20054;-76
2022/07/13 02:16:15;;;;;;;1.75;1.40;;;19.60;94.90;;;19.71;100.00;101106.47;4977991;28;20085;-76
2022/07/13 02:18:43;;;;;;;2.13;1.58;;;19.70;95.00;;;19.75;100.00;101105.38;4989433;28;20057;-76
2022/07/13 02:21:11;;;;;;;3.40;1.67;;;19.60;94.90;;;19.74;100.00;101108.97;4976158;28;20058;-76
2022/07/13 02:23:38;;;;;;;1.73;1.50;;;19.60;94.80;;;19.69;100.00;101106.56;4954848;28;20050;-76
2022/07/13 02:26:05;;;;;;;1.60;1.30;;;19.60;94.80;;;19.68;100.00;101106.63;4956999;28;20479;-75
2022/07/13 02:28:32;;;;;;;2.05;1.50;;;19.60;94.90;;;19.69;100.00;101108.34;4957143;28;20149;-77
2022/07/13 02:30:59;;;;;;;1.58;1.25;;;19.60;94.90;;;19.71;100.00;101103.78;4972054;28;20050;-77
2022/07/13 02:33:26;;;;;;;1.70;1.60;;;19.60;94.60;;;19.65;100.00;101096.97;4956298;28;20043;-78
2022/07/13 02:35:53;;;;;;;2.28;1.50;;;19.60;94.50;;;19.71;100.00;101101.13;4972948;28;20047;-76
2022/07/13 02:38:20;;;;;;;4.18;2.20;;;19.50;94.30;;;19.67;100.00;101100.44;4973418;28;20066;-78
2022/07/13 02:40:47;;;;;;;2.47;1.58;;;19.60;94.50;;;19.73;100.00;101093.91;4956758;28;20133;-76
2022/07/13 02:43:16;;;;;;;4.50;1.58;;;19.50;94.30;;;19.63;100.00;101092.66;4957395;28;20798;-78
2022/07/13 02:45:43;;;;;;;3.45;1.67;;;19.60;94.60;;;19.56;100.00;101084.94;4972004;28;20073;-78
2022/07/13 02:48:10;;;;;;;2.45;1.60;;;19.60;94.70;;;19.56;100.00;101084.94;4990974;28;20049;-77
2022/07/13 02:50:38;;;;;;;2.05;1.80;;;19.50;94.70;;;19.45;100.00;101092.66;4988199;28;20038;-78
2022/07/13 02:53:06;;;;;;;2.05;1.83;;;19.50;95.00;;;19.37;100.00;101092.16;4972719;28;20120;-76
2022/07/13 02:55:35;;;;;;;2.17;1.38;;;19.40;95.20;;;19.20;100.00;101091.19;4972754;28;20042;-76
2022/07/13 02:58:02;;;;;;;3.63;1.90;;;19.30;95.40;;;19.13;100.00;101089.75;4990294;28;20093;-76
2022/07/13 03:00:30;;;;;;;3.05;1.70;;;19.30;95.50;;;18.99;100.00;101093.97;4972362;28;20392;-76
2022/07/13 03:02:57;;;;;;;2.25;1.45;;;19.80;95.90;;;18.90;100.00;101093.50;4973027;28;20046;-75
2022/07/13 03:05:25;;;;;;;2.70;1.80;;;19.10;96.00;;;18.95;100.00;101088.81;4990650;28;20047;-76
2022/07/13 03:07:52;;;;;;;1.90;1.30;;;19.00;95.90;;;18.85;100.00;101086.56;4972764;28;20416;-77
2022/07/13 03:10:19;;;;;;;2.60;1.55;;;19.00;96.00;;;18.81;100.00;101092.09;4982146;28;20098;-77
2022/07/13 03:12:49;;;;;;;1.75;1.42;;;18.90;96.10;;;18.84;100.00;101089.31;4986475;28;20045;-78
2022/07/13 03:15:17;;;;;;;2.35;1.38;;;18.90;96.20;;;18.81;100.00;101085.00;4986950;28;20434;-77
2022/07/13 03:17:44;;;;;;;3.00;1.52;;;18.80;96.30;;;18.80;100.00;101085.94;4971100;28;20138;-78
2022/07/13 03:20:13;;;;;;;5.47;1.80;;;18.80;96.40;;;18.78;100.00;101076.25;4969965;28;20461;-76
2022/07/13 03:22:40;;;;;;;3.72;1.90;;;18.80;96.40;;;18.79;100.00;101068.22;4959146;28;20757;-76
2022/07/13 03:25:09;;;;;;;3.45;1.40;;;19.60;96.70;;;18.78;100.00;101063.81;4989791;28;20047;-76
2022/07/13 03:27:36;;;;;;;1.77;1.40;;;18.80;96.50;;;18.81;100.00;101060.13;4974095;28;20077;-76
2022/07/13 03:30:04;;;;;;;2.17;1.63;;;18.70;96.50;;;18.71;100.00;101065.91;4972935;28;20073;-76
2022/07/13 03:32:32;;;;;;;3.60;1.90;;;18.80;96.60;;;18.78;100.00;101054.94;4971937;28;20068;-77
2022/07/13 03:34:59;;;;;;;1.65;1.50;;;18.30;96.40;;;18.86;100.00;101063.44;4988034;28;20063;-77
2022/07/13 03:37:27;;;;;;;2.30;2.08;;;18.80;96.40;;;18.79;100.00;101062.00;4989054;28;20400;-76
2022/07/13 03:39:55;;;;;;;7.20;2.08;;;18.70;96.50;;;18.80;100.00;101055.72;5004706;28;20319;-76
2022/07/13 03:42:23;;;;;;;3.20;1.65;;;18.80;96.40;;;18.84;100.00;101060.84;4972672;28;20058;-78
2022/07/13 03:44:50;;;;;;;2.08;1.80;;;18.70;96.40;;;18.81;100.00;101068.13;4972732;28;20523;-77
2022/07/13 03:47:18;;;;;;;2.17;1.65;;;18.70;96.50;;;18.82;100.00;101068.06;4989566;28;20050;-78
2022/07/13 03:49:45;;;;;;;2.30;1.60;;;18.70;96.40;;;18.89;100.00;101067.75;4973158;28;20512;-76
2022/07/13 03:52:12;;;;;;;2.67;1.70;;;18.80;96.50;;;18.92;100.00;101072.97;5005573;28;20097;-78
2022/07/13 03:54:39;;;;;;;2.65;1.65;;;18.80;96.40;;;18.78;100.00;101068.28;4972922;28;20490;-76
2022/07/13 03:57:08;;;;;;;3.13;1.35;;;18.80;96.50;;;18.75;100.00;101073.75;4990305;28;20074;-77
2022/07/13 03:59:36;;;;;;;1.60;1.50;;;18.80;96.60;;;18.81;100.00;101070.78;4971706;28;20073;-78
2022/07/13 04:02:04;;;;;;;2.03;1.60;;;18.70;96.50;;;18.74;100.00;101072.03;4973580;28;20098;-78
2022/07/13 04:04:32;;;;;;;1.95;1.67;;;18.70;96.60;;;18.76;100.00;101072.81;4972242;28;20735;-77
2022/07/13 04:07:01;;;;;;;4.03;1.70;;;18.70;96.60;;;18.71;100.00;101073.03;4955727;28;20460;-80
2022/07/13 04:09:30;;;;;;;2.00;1.80;;;18.70;96.70;;;18.76;100.00;101072.81;4956356;28;20047;-79
2022/07/13 04:11:58;;;;;;;1.70;1.60;;;18.70;96.70;;;18.79;100.00;101078.00;4974333;28;20586;-80
2022/07/13 04:14:27;;;;;;;2.53;1.75;;;18.70;96.70;;;18.80;100.00;101074.38;4983538;28;20106;-82
2022/07/13 04:16:57;;;;;;;2.50;1.50;;;18.70;96.60;;;18.84;100.00;101068.84;4971357;28;20049;-81
2022/07/13 04:19:25;;;;;;;2.75;1.92;;;18.70;96.60;;;18.88;100.00;101056.25;4962850;28;20047;-77
2022/07/13 04:21:53;;;;;;;2.75;1.60;;;18.80;96.60;;;18.92;100.00;101059.63;4965414;28;20484;-78
2022/07/13 04:24:22;;;;;;;2.83;1.63;;;18.80;96.60;;;18.92;100.00;101065.81;4978032;28;20068;-79
2022/07/13 04:26:51;;;;;;;2.00;1.80;;;18.70;96.70;;;18.97;100.00;101068.25;4973511;28;20051;-79
2022/07/13 04:29:18;;;;;;;3.20;1.60;;;18.80;96.50;;;18.96;100.00;101067.38;4971820;28;20050;-81
2022/07/13 04:31:45;;;;;;;4.50;1.83;;;18.90;96.60;;;18.96;100.00;101070.06;4974965;28;20133;-80
2022/07/13 04:34:13;;;;;;;4.28;1.55;;;18.90;96.50;;;18.89;100.00;101081.06;4984485;28;20041;-79
2022/07/13 04:36:44;;;;;;;2.35;1.52;;;19.20;96.70;;;18.97;100.00;101074.47;4979395;28;20069;-80
2022/07/13 04:39:13;;;;;;;3.40;1.70;;;18.90;96.60;;;18.89;100.00;101073.09;4958276;28;20055;-78
2022/07/13 04:41:40;;;;;;;6.13;1.90;;;18.80;96.70;;;18.95;100.00;101073.66;4971665;28;20043;-79
2022/07/13 04:44:10;;;;;;;3.08;1.80;;;18.80;96.60;;;18.98;100.00;101065.53;4981156;28;20790;-80
2022/07/13 04:46:38;;;;;;;2.92;2.00;;;18.90;96.60;;;18.92;100.00;101060.47;4998630;28;20503;-79
2022/07/13 04:49:05;;;;;;;1.80;1.70;;;18.90;96.70;;;18.73;100.00;101068.47;4976757;28;20054;-79
2022/07/13 04:51:35;;;;;;;1.90;1.70;;;18.90;96.70;;;18.74;100.00;101066.69;4970339;28;20046;-79
2022/07/13 04:54:04;;;;;;;1.85;1.73;;;18.90;96.70;;;18.69;100.00;101065.13;4973260;28;20089;-79
2022/07/13 04:56:31;;;;;;;3.65;2.03;;;18.80;96.70;;;18.77;100.00;101066.53;4989519;28;20074;-78
2022/07/13 04:58:59;;;;;;;2.22;1.63;;;18.80;96.70;;;18.99;100.00;101064.63;4971361;28;20134;-78
2022/07/13 05:01:28;;;;;;;2.78;1.63;;;18.80;96.70;;;19.08;100.00;101057.09;4981339;28;20051;-78
2022/07/13 05:04:02;;;;;;;5.32;1.65;;;18.90;96.60;;;19.15;100.00;101058.53;4971711;28;20108;-78
2022/07/13 05:06:30;;;;;;;2.13;1.67;;;18.90;96.50;;;19.28;100.00;101064.13;4985520;28;20687;-77
2022/07/13 05:08:58;;;;;;;3.45;1.70;;;19.00;96.40;;;19.38;100.00;101064.53;4970955;28;20053;-77
2022/07/13 05:11:25;;;;;;;3.70;1.92;;;19.10;96.30;;;19.37;100.00;101070.81;4970464;28;20047;-78
2022/07/13 05:13:53;;;;;;;4.15;1.52;;;19.20;96.30;;;19.44;100.00;101064.25;4987424;28;20043;-78
2022/07/13 05:16:21;;;;;;;2.65;1.88;;;19.20;96.20;;;19.45;100.00;101063.28;4967773;28;20713;-78
2022/07/13 05:18:48;;;;;;;1.65;1.50;;;19.30;96.20;;;19.62;100.00;101064.25;4953987;28;20050;-78
2022/07/13 05:21:21;;;;;;;2.80;1.77;;;19.40;95.90;;;19.72;100.00;101073.47;4955904;28;20054;-78
2022/07/13 05:23:49;;;;;;;3.17;1.83;;;19.50;95.90;;;19.79;100.00;101066.91;4955873;28;20452;-78
2022/07/13 05:26:16;;;;;;;2.35;1.77;;;19.50;95.80;;;19.93;100.00;101084.03;4955783;28;20138;-78
2022/07/13 05:28:44;;;;;;;6.85;1.67;;;19.60;95.60;;;19.97;100.00;101078.44;4971153;28;20051;-77
2022/07/13 05:31:14;;;;;;;;;;;19.70;95.70;;;20.11;100.00;101076.84;4956151;28;20100;-78
2022/07/13 05:33:41;;;;;;;3.50;1.92;;;19.80;95.40;;;20.14;100.00;101079.38;4972539;28;19941;-78
2022/07/13 05:36:14;;;;;;;4.28;2.00;;;19.80;95.50;;;20.15;100.00;101083.78;4971494;28;20043;-77
2022/07/13 05:38:43;;;;;;;2.92;1.83;;;19.90;95.60;;;20.26;100.00;101078.72;4971005;28;20138;-77
2022/07/13 05:41:11;;;;;;;3.38;1.90;;;20.00;95.50;;;20.44;100.00;101075.13;4955265;28;20055;-77
2022/07/13 05:43:40;;;;;;;2.20;1.50;;;20.10;95.30;;;20.59;100.00;101073.41;4954891;28;20053;-77
2022/07/13 05:46:09;;;;;;;3.28;1.73;;;20.20;95.10;;;20.64;100.00;101071.38;4976325;28;20039;-78
2022/07/13 05:48:36;;;;;;;3.70;1.60;;;20.30;95.10;;;20.79;100.00;101072.31;4990153;28;20047;-77
2022/07/13 05:51:04;;;;;;;3.53;1.80;;;20.40;94.90;;;20.86;100.00;101079.09;4974291;28;20066;-78
2022/07/13 05:53:51;;;;;;;2.67;1.50;;;20.50;94.50;;;20.96;100.00;101074.09;4976461;28;20034;-78
2022/07/13 05:56:18;;;;;;;3.75;1.65;;;20.60;94.50;;;21.02;100.00;101070.19;4974533;28;20061;-77
2022/07/13 05:58:45;;;;;;;1.90;1.30;;;20.70;94.20;;;21.09;100.00;101067.09;4973840;28;20056;-77
2022/07/13 06:01:12;;;;;;;2.58;1.45;;;20.80;94.20;;;21.20;100.00;101053.09;4990204;28;20050;-78
2022/07/13 06:03:39;;;;;;;3.25;1.40;;;20.90;94.20;;;21.32;100.00;101056.00;4991198;28;20073;-77
2022/07/13 06:06:07;;;;;;;2.80;1.73;;;20.90;94.00;;;21.46;100.00;101063.22;4991539;28;20483;-78
2022/07/13 06:08:34;;;;;;;1.50;1.27;;;21.00;93.90;;;21.53;100.00;101061.88;4991198;28;20046;-77
2022/07/13 06:11:01;;;;;;;2.13;1.35;;;21.20;93.60;;;21.54;100.00;101068.97;5006060;28;20142;-77
2022/07/13 06:13:28;;;;;;;3.25;1.25;;;21.20;93.50;;;21.57;100.00;101071.47;4990200;28;20491;-78
2022/07/13 06:15:57;;;;;;;2.85;1.65;;;21.30;93.40;;;21.64;100.00;101071.97;4989638;28;20585;-77
2022/07/13 06:18:24;;;;;;;3.60;1.58;;;21.30;93.20;;;21.70;100.00;101068.94;4974019;28;20118;-77
2022/07/13 06:20:51;;;;;;;2.80;1.27;;;21.40;93.10;;;21.80;100.00;101075.50;4989505;28;20054;-78
2022/07/13 06:23:20;;;;;;;2.70;1.45;;;21.40;93.10;;;21.82;100.00;101078.06;4989771;28;20046;-77
2022/07/13 06:25:47;;;;;;;4.00;1.80;;;21.50;93.10;;;21.86;100.00;101079.63;4989936;28;20145;-77
2022/07/13 06:28:14;;;;;;;2.15;1.58;;;21.50;93.00;;;21.90;100.00;101067.75;4972406;28;20062;-76
2022/07/13 06:30:41;;;;;;;1.67;1.10;;;21.60;92.90;;;22.06;100.00;101058.78;4989324;28;20142;-76
2022/07/13 06:33:08;;;;;;;2.10;1.20;;;21.70;92.80;;;22.12;100.00;101063.75;4989770;28;20042;-76
2022/07/13 06:35:35;;;;;;;1.55;1.30;;;21.80;92.80;;;22.29;100.00;101067.19;4989671;28;20042;-76
2022/07/13 06:38:03;;;;;;;3.28;1.58;;;21.80;92.60;;;22.38;100.00;101062.09;4991086;28;20046;-77
2022/07/13 06:40:30;;;;;;;1.50;1.30;;;22.00;92.40;;;22.47;100.00;101063.38;4973418;28;20080;-76
2022/07/13 06:42:57;;;;;;;2.13;1.40;;;22.00;92.00;;;22.52;100.00;101068.44;4973429;28;20073;-77
2022/07/13 06:45:25;;;;;;;1.90;1.25;;;22.10;91.80;;;22.55;100.00;101062.88;4990627;28;20751;-74
2022/07/13 06:47:52;;;;;;;2.05;1.25;;;22.20;91.90;;;22.67;100.00;101064.78;4987212;28;20081;-77
2022/07/13 06:50:20;;;;;;;2.85;1.15;;;22.30;91.90;;;22.77;100.00;101066.91;4964805;28;20554;-76
2022/07/13 06:52:47;;;;;;;1.60;1.30;;;22.30;91.40;;;22.82;100.00;101066.59;4989150;28;20047;-76
2022/07/13 06:55:15;;;;;;;3.60;1.27;;;22.40;91.30;;;22.89;100.00;101060.75;4973235;28;20049;-76
2022/07/13 06:57:42;;;;;;;1.60;1.27;;;22.50;91.10;;;22.93;100.00;101067.63;4988983;28;20077;-76
2022/07/13 07:00:10;;;;;;;3.22;2.08;;;22.60;91.20;;;23.10;100.00;101073.69;4989217;28;20042;-76
2022/07/13 07:02:37;;;;;;;3.25;0.93;;;22.60;91.30;;;23.16;100.00;101073.28;4972051;28;20121;-77
2022/07/13 07:05:09;;;;;;;2.08;1.50;;;22.70;90.80;;;23.26;100.00;101075.38;4986731;28;20442;-77
2022/07/13 07:07:37;;;;;;;3.55;1.38;;;22.80;90.80;;;23.39;100.00;101075.41;4966187;28;20057;-76
2022/07/13 07:10:06;;;;;;;2.42;1.67;;;22.90;90.70;;;23.40;98.38;101075.34;4970633;28;20118;-76
2022/07/13 07:12:33;;;;;;;3.88;1.58;;;23.00;90.20;;;23.43;99.35;101075.13;4982553;28;20062;-76
2022/07/13 07:15:02;;;;;;;3.22;1.98;;;23.10;90.30;;;23.59;100.00;101076.75;4973047;28;20046;-77
2022/07/13 07:17:29;;;;;;;1.35;1.20;;;23.10;90.50;;;23.71;100.00;101073.25;4972336;28;20573;-77
2022/07/13 07:20:01;;;;;;;4.30;1.45;;;23.20;90.60;;;23.73;97.00;101073.16;4955897;28;20034;-76
2022/07/13 07:22:28;;;;;;;1.75;1.20;;;23.30;90.00;;;23.78;98.25;101073.69;4988302;28;20427;-77
2022/07/13 07:24:56;;;;;;;2.10;1.23;;;23.40;90.10;;;23.73;97.18;101078.53;4988322;28;20046;-77
2022/07/13 07:27:26;;;;;;;1.33;1.17;;;23.40;90.00;;;23.87;99.61;101081.09;4988695;28;20046;-78
2022/07/13 07:29:53;;;;;;;3.53;1.73;;;23.40;90.20;;;24.02;97.95;101073.84;4989386;28;20042;-77
2022/07/13 07:32:21;;;;;;;1.52;1.20;;;23.50;90.10;;;24.10;96.57;101073.31;4988382;28;20455;-76
2022/07/13 07:34:49;;;;;;;3.50;1.83;;;23.60;89.90;;;24.14;92.98;101065.91;4987859;28;20038;-76
2022/07/13 07:37:19;;;;;;;2.40;1.42;;;23.80;88.90;;;24.32;93.86;101069.09;4987996;28;20078;-76
2022/07/13 07:39:47;;;;;;;3.65;1.35;;;23.90;89.10;;;24.41;92.16;101060.38;4971427;28;20611;-77
2022/07/13 07:42:14;;;;;;;2.85;1.40;;;24.00;88.80;;;24.54;92.58;101054.94;4987322;28;20117;-77
2022/07/13 07:44:41;;;;;;;2.03;1.10;;;24.10;89.00;;;24.56;94.07;101060.22;4987536;28;20177;-77
2022/07/13 07:47:08;;;;;;;1.35;1.25;;;24.10;89.00;;;24.51;90.21;101060.56;4987982;28;20054;-77
2022/07/13 07:49:35;;;;;;;2.60;1.38;;;24.20;88.00;;;24.52;88.75;101062.28;4988784;28;20046;-77
2022/07/13 07:52:07;;;;;;;1.73;1.40;;;24.20;87.60;;;24.45;93.43;101050.25;4972277;28;20451;-77
2022/07/13 07:54:54;;;;;;;1.80;1.30;;;24.20;88.40;;;24.48;95.63;101055.41;4987551;28;20058;-77
2022/07/13 07:57:27;;;;;;;3.38;1.30;;;24.20;88.70;;;24.44;90.57;101052.06;4987884;28;20042;-77
2022/07/13 07:59:54;;;;;;;2.42;1.30;;;24.20;87.70;;;24.35;90.60;101052.72;4987072;28;20129;-76
2022/07/13 08:02:21;;;;;;;3.72;1.33;;;24.10;87.80;;;24.38;89.80;101055.22;4987564;28;20753;-77
2022/07/13 08:04:49;;;;;;;5.15;1.38;;;24.10;87.30;;;24.39;91.64;101051.56;4971184;28;20122;-76
2022/07/13 08:07:16;;;;;;;5.53;1.02;;;24.10;87.70;;;24.46;88.53;101060.88;4987321;28;20046;-77
2022/07/13 08:09:43;;;;;;;1.75;1.17;;;24.10;87.10;;;24.53;85.47;101063.16;4981329;28;20145;-77
2022/07/13 08:12:11;;;;;;;3.45;1.50;;;24.10;86.60;;;24.49;82.91;101057.97;4987498;28;20117;-78
2022/07/13 08:14:38;;;;;;;1.20;1.10;;;24.20;85.70;;;24.60;82.99;101050.97;4989451;28;20042;-78
2022/07/13 08:17:05;;;;;;;4.07;1.30;;;24.20;85.90;;;24.58;80.70;101045.69;4988655;28;20124;-78
2022/07/13 08:19:32;;;;;;;3.58;1.38;;;24.30;85.20;;;24.63;81.96;101038.16;4987393;28;20125;-76
2022/07/13 08:22:08;;;;;;;2.17;1.40;;;24.30;85.40;;;24.70;80.59;101040.38;4987999;28;20070;-77
2022/07/13 08:24:35;;;;;;;2.55;1.15;;;24.30;85.70;;;24.77;80.58;101037.16;4988069;28;20644;-76
2022/07/13 08:27:02;;;;;;;3.70;1.40;;;24.30;85.30;;;24.88;81.71;101036.34;4971075;28;20058;-77
2022/07/13 08:29:29;;;;;;;2.50;1.45;;;24.40;85.60;;;24.95;82.07;101039.44;4986932;28;20492;-77
2022/07/13 08:31:56;;;;;;;1.30;1.08;;;24.40;85.50;;;25.06;81.75;101039.53;5003050;28;20061;-76
2022/07/13 08:39:54;;;;;;;3.13;1.13;;;24.70;84.80;;;25.29;75.93;101039.63;4987281;28;20414;-76
2022/07/13 08:42:21;;;;;;;1.38;1.10;;;24.80;84.20;;;25.33;75.00;101034.84;4987063;28;20197;-76
2022/07/13 08:44:48;;;;;;;1.73;1.15;;;24.80;83.90;;;25.31;73.20;101037.69;4987226;28;20157;-76
2022/07/13 08:47:17;;;;;;;2.65;1.35;;;24.90;83.50;;;25.35;73.62;101036.47;4986910;28;20049;-76
2022/07/13 08:49:44;;;;;;;2.80;1.20;;;24.90;83.30;;;25.45;74.49;101036.59;4970505;28;20046;-75
2022/07/13 08:52:12;;;;;;;1.95;1.30;;;25.00;83.60;;;25.56;68.29;101034.97;4986749;28;20051;-75
2022/07/13 08:54:39;;;;;;;1.90;1.20;;;25.00;82.30;;;25.67;64.74;101040.34;4991266;28;20123;-75
2022/07/13 08:57:06;;;;;;;3.10;1.02;;;25.10;81.50;;;25.80;62.13;101042.09;4975235;28;20054;-75
2022/07/13 08:59:33;;;;;;;4.55;1.10;;;25.20;80.50;;;25.83;63.06;101036.47;4992284;28;20117;-76
2022/07/13 09:06:38;;;;;;;3.47;1.42;;;25.30;79.90;;;25.94;61.27;101038.34;4996095;28;20058;-78
2022/07/13 09:09:23;;;;;;;1.60;1.38;;;25.40;79.70;;;26.03;52.30;101032.19;4996007;28;20590;-80
2022/07/13 09:12:22;;;;;;;1.50;0.93;;;25.40;76.60;;;26.21;51.29;101029.91;4981551;28;20051;-79
2022/07/13 09:14:57;;;;;;;1.50;1.02;;;25.50;75.90;;;26.29;46.98;101032.84;4996015;28;20481;-80
2022/07/13 09:17:33;;;;;;;0.88;0.80;;;25.60;73.30;;;26.44;46.98;101035.28;4996046;28;20038;-77
2022/07/13 09:20:14;;;;;;;2.95;0.80;;;25.80;73.60;;;26.65;45.05;101032.66;4958352;28;20438;-77
2022/07/13 09:22:55;;;;;;;1.85;1.05;;;25.90;72.00;;;26.84;43.12;101023.94;4990747;28;20060;-77
2022/07/13 09:25:34;;;;;;;0.90;0.70;;;26.10;70.60;;;26.99;43.14;101021.81;4983151;28;20051;-78
2022/07/13 09:28:05;;;;;;;2.42;1.10;;;26.30;69.90;;;27.11;47.20;101022.63;4974670;28;20053;-78
2022/07/13 09:30:34;;;;;;;1.15;0.77;;;26.50;73.00;;;27.18;42.25;101029.22;4957709;28;20047;-78
2022/07/13 09:33:03;;;;;;;1.63;1.10;;;26.60;68.90;;;27.29;42.38;101020.19;4973290;28;20049;-77
2022/07/13 09:35:50;;;;;;;1.33;0.95;;;26.70;69.00;;;27.64;41.53;101028.19;4977961;28;20046;-77
2022/07/13 09:38:36;;;;;;;1.13;0.90;;;26.90;68.10;;;27.95;38.92;101031.75;4973066;28;20467;-77
2022/07/13 09:41:30;;;;;;;0.70;0.70;;;27.20;65.60;;;28.00;37.05;101023.22;4972870;28;20130;-78
2022/07/13 09:47:03;;;;;;;1.75;0.90;;;27.60;65.50;;;28.15;36.97;101030.00;5003758;28;20054;-80
2022/07/13 09:49:44;;;;;;;1.58;1.08;;;27.60;62.50;;;28.17;38.34;101028.03;4975803;28;20316;-79
2022/07/13 09:52:19;;;;;;;2.78;1.00;;;27.70;63.50;;;28.03;40.46;101023.81;4990377;28;20035;-78
2022/07/13 09:54:53;;;;;;;0.82;0.70;;;27.70;65.00;;;28.03;38.00;101023.81;4977710;28;20050;-76
2022/07/13 09:57:23;;;;;;;1.00;0.82;;;27.60;62.40;;;28.15;38.48;101029.13;4981588;28;20023;-76
2022/07/13 09:59:52;;;;;;;1.30;0.80;;;27.70;62.50;;;28.13;37.87;101031.97;4990132;28;20078;-78
2022/07/13 10:02:20;;;;;;;1.60;1.10;;;27.70;61.90;;;28.18;38.26;101023.50;4990729;28;20305;-77
2022/07/13 10:04:49;;;;;;;3.47;0.82;;;27.70;61.90;;;28.30;38.20;101024.25;4989765;28;20057;-78
2022/07/13 10:07:18;;;;;;;0.60;0.60;;;27.80;61.90;;;28.32;37.26;101027.66;4992911;28;20039;-77
2022/07/13 10:09:46;;;;;;;0.73;0.73;;;27.80;60.70;;;28.37;37.99;101017.28;4989807;28;20526;-77
2022/07/13 10:12:13;;;;;;;1.02;0.63;;;27.90;61.10;;;28.39;36.99;101018.00;4978049;28;20407;-78
2022/07/13 10:14:41;;;;;;;0.98;0.90;;;28.00;60.40;;;28.39;36.46;101017.16;4954002;28;20507;-77
2022/07/13 10:17:14;;;;;;;0.90;0.73;;;28.00;59.50;;;28.43;36.09;101014.03;4964215;28;20046;-77
2022/07/13 10:20:13;;;;;;;1.92;0.85;;;27.90;58.80;;;28.42;36.41;101015.03;4970015;28;20053;-77
2022/07/13 10:22:45;;;;;;;0.93;0.70;;;28.00;59.20;;;28.47;35.46;101008.34;4981931;28;20042;-77
2022/07/13 10:25:13;;;;;;;1.85;1.08;;;28.00;58.60;;;28.66;35.17;101010.22;4973675;28;20054;-77
2022/07/13 10:27:41;;;;;;;0.77;0.70;;;28.10;57.90;;;28.66;35.00;101002.94;4989932;28;20447;-77